KMLI/MLI METAR and TAF weather

Enter ICAO airport designator
Station Type Date Time Source
KMLI METAR 2021/06/24 05:52 UTC NOAA

KMLI 240552Z AUTO 18011KT 10SM BKN047 23/13 A2992 RMK AO2 SLP128 T02330128 10267 20233 402830167 50002


Station Type Date Time Source
KMLI Decoded METAR 2021/06/24 05:52 UTC NOAA

MOLINE QUAD-CITY AIRPORT, IL, United States (KMLI) 41-27N 90-31W 184M
Jun 24, 2021 - 01:52 AM EDT / 2021.06.24 0552 UTC
Wind: from the S (180 degrees) at 13 MPH (11 KT):0
Visibility: 10 mile(s):0
Sky conditions: mostly cloudy
Temperature: 73.9 F (23.3 C)
Dew Point: 55.0 F (12.8 C)
Relative Humidity: 51%
Pressure (altimeter): 29.92 in. Hg (1013 hPa)
Pressure tendency: 0.01 inches (0.2 hPa) higher than three hours ago
ob: KMLI 240552Z AUTO 18011KT 10SM BKN047 23/13 A2992 RMK AO2 SLP128 T02330128 10267 20233 402830167 50002
cycle: 6

Station Type Date Time Source
KMLI TAF 2021/06/24 06:30 UTC NOAA

TAF KMLI 240528Z 2406/2506 19010KT P6SM OVC050 WS018/21040KT
FM241300 19011KT 6SM -SHRA SCT025 BKN040
TEMPO 2413/2417 5SM -TSRA BKN040CB
FM241700 21012G19KT P6SM BKN030
FM250000 16010KT 4SM TSRA BR OVC025CB

Example: see airport list